createdAt,value
2023-03-26T00:01:37.655Z,9.30
2023-03-26T00:04:05.824Z,9.30
2023-03-26T00:06:36.730Z,9.30
2023-03-26T00:09:04.506Z,9.30
2023-03-26T00:11:31.457Z,9.30
2023-03-26T00:13:58.878Z,9.20
2023-03-26T00:16:27.807Z,9.20
2023-03-26T00:18:55.151Z,9.20
2023-03-26T00:21:29.416Z,9.20
2023-03-26T00:23:58.615Z,9.20
2023-03-26T00:26:26.440Z,9.20
2023-03-26T00:28:54.758Z,9.20
2023-03-26T00:31:22.093Z,9.20
2023-03-26T00:33:51.307Z,9.20
2023-03-26T00:36:20.142Z,9.20
2023-03-26T00:38:48.057Z,9.20
2023-03-26T00:41:17.989Z,9.20
2023-03-26T00:43:46.647Z,9.20
2023-03-26T00:46:13.763Z,9.20
2023-03-26T00:48:45.863Z,9.20
2023-03-26T00:51:15.554Z,9.10
2023-03-26T00:53:43.573Z,9.10
2023-03-26T00:56:10.743Z,9.10
2023-03-26T00:58:37.846Z,9.10
2023-03-26T01:01:06.578Z,9.10
2023-03-26T01:03:34.961Z,9.00
2023-03-26T01:06:13.951Z,9.00
2023-03-26T01:08:42.868Z,9.00
2023-03-26T01:11:16.590Z,9.00
2023-03-26T01:13:48.528Z,9.00
2023-03-26T01:16:26.935Z,9.00
2023-03-26T01:18:54.702Z,9.00
2023-03-26T01:21:22.861Z,9.00
2023-03-26T01:24:00.285Z,9.00
2023-03-26T01:26:31.981Z,8.90
2023-03-26T01:29:01.709Z,8.90
2023-03-26T01:31:37.186Z,8.90
2023-03-26T01:34:07.526Z,8.90
2023-03-26T01:36:42.719Z,8.80
2023-03-26T01:39:18.662Z,8.80
2023-03-26T01:41:47.571Z,8.80
2023-03-26T01:44:23.114Z,8.80
2023-03-26T01:46:51.262Z,8.80
2023-03-26T01:49:18.374Z,8.80
2023-03-26T01:51:45.330Z,8.70
2023-03-26T01:54:15.739Z,8.70
2023-03-26T01:56:42.759Z,8.70
2023-03-26T01:59:09.738Z,8.70
2023-03-26T02:01:55.898Z,8.70
2023-03-26T02:04:23.003Z,8.70
2023-03-26T02:06:58.641Z,8.70
2023-03-26T02:09:29.050Z,8.60
2023-03-26T02:11:56.577Z,8.60
2023-03-26T02:14:23.508Z,8.60
2023-03-26T02:16:51.624Z,8.60
2023-03-26T02:19:21.965Z,8.60
2023-03-26T02:21:51.368Z,8.60
2023-03-26T02:24:19.653Z,8.60
2023-03-26T02:26:47.096Z,8.60
2023-03-26T02:29:14.971Z,8.50
2023-03-26T02:31:44.569Z,8.50
2023-03-26T02:34:11.617Z,8.50
2023-03-26T02:36:46.072Z,8.50
2023-03-26T02:39:14.410Z,8.50
2023-03-26T02:41:45.110Z,8.50
2023-03-26T02:44:12.675Z,8.40
2023-03-26T02:46:59.522Z,8.40
2023-03-26T02:49:44.965Z,8.40
2023-03-26T02:52:18.836Z,8.40
2023-03-26T02:54:48.305Z,8.40
2023-03-26T02:57:25.634Z,8.40
2023-03-26T02:59:52.985Z,8.40
2023-03-26T03:02:38.938Z,8.40
2023-03-26T03:05:26.558Z,8.40
2023-03-26T03:08:11.817Z,8.40
2023-03-26T03:11:04.258Z,8.40
2023-03-26T03:13:43.344Z,8.30
2023-03-26T03:16:10.496Z,8.40
2023-03-26T03:18:37.783Z,8.30
2023-03-26T03:21:05.886Z,8.30
2023-03-26T03:23:32.879Z,8.30
2023-03-26T03:26:13.543Z,8.30
2023-03-26T03:28:42.165Z,8.30
2023-03-26T03:31:09.193Z,8.30
2023-03-26T03:33:37.264Z,8.20
2023-03-26T03:36:10.285Z,8.20
2023-03-26T03:38:47.698Z,8.20
2023-03-26T03:41:18.866Z,8.20
2023-03-26T03:43:47.192Z,8.20
2023-03-26T03:46:21.397Z,8.20
2023-03-26T03:48:50.058Z,8.20
2023-03-26T03:51:22.109Z,8.20
2023-03-26T03:54:09.275Z,8.20
2023-03-26T03:57:02.096Z,8.20
2023-03-26T04:00:01.679Z,8.20
2023-03-26T04:02:43.195Z,8.20
2023-03-26T04:05:12.015Z,8.20
2023-03-26T04:07:45.315Z,8.20
2023-03-26T04:10:24.161Z,8.20
2023-03-26T04:13:09.668Z,8.10
2023-03-26T04:16:09.428Z,8.10
2023-03-26T04:18:37.697Z,8.10
2023-03-26T04:21:12.797Z,8.00
2023-03-26T04:23:40.010Z,8.00
2023-03-26T04:26:19.955Z,8.00
2023-03-26T04:29:12.086Z,8.00
2023-03-26T04:31:39.118Z,8.00
2023-03-26T04:34:08.016Z,7.90
2023-03-26T04:36:43.147Z,7.90
2023-03-26T04:39:11.852Z,7.90
2023-03-26T04:41:58.016Z,7.90
2023-03-26T04:44:30.470Z,7.90
2023-03-26T04:47:09.022Z,7.80
2023-03-26T04:49:44.213Z,7.80
2023-03-26T04:52:14.975Z,7.80
2023-03-26T04:55:16.990Z,7.80
2023-03-26T04:57:46.325Z,7.80
2023-03-26T05:00:28.496Z,7.70
2023-03-26T05:02:59.577Z,7.70
2023-03-26T05:05:27.092Z,7.70
2023-03-26T05:07:54.557Z,7.70
2023-03-26T05:10:22.007Z,7.60
2023-03-26T05:13:09.163Z,7.60
2023-03-26T05:15:39.035Z,7.60
2023-03-26T05:18:12.828Z,7.50
2023-03-26T05:20:43.608Z,7.50
2023-03-26T05:23:10.939Z,7.50
2023-03-26T05:25:43.556Z,7.50
2023-03-26T05:28:19.278Z,7.50
2023-03-26T05:31:04.009Z,7.40
2023-03-26T05:33:36.684Z,7.40
2023-03-26T05:36:09.552Z,7.40
2023-03-26T05:38:37.103Z,7.40
2023-03-26T05:41:07.504Z,7.40
2023-03-26T05:43:36.888Z,7.40
2023-03-26T05:46:16.532Z,7.40
2023-03-26T05:48:43.797Z,7.30
2023-03-26T05:51:12.407Z,7.30
2023-03-26T05:53:42.860Z,7.30
2023-03-26T05:56:45.259Z,7.30
2023-03-26T05:59:31.070Z,7.30
2023-03-26T06:02:16.168Z,7.30
2023-03-26T06:05:02.903Z,7.30
2023-03-26T06:07:52.512Z,7.30
2023-03-26T06:10:20.329Z,7.30
2023-03-26T06:12:47.251Z,7.20
2023-03-26T06:15:14.548Z,7.20
2023-03-26T06:17:58.839Z,7.20
2023-03-26T06:20:37.573Z,7.20
2023-03-26T06:23:14.013Z,7.20
2023-03-26T06:26:07.269Z,7.20
2023-03-26T06:29:09.562Z,7.20
2023-03-26T06:32:20.235Z,7.20
2023-03-26T06:34:58.595Z,7.20
2023-03-26T06:37:25.711Z,7.20
2023-03-26T06:39:57.801Z,7.20
2023-03-26T06:43:09.362Z,7.10
2023-03-26T06:46:06.647Z,7.10
2023-03-26T06:48:40.136Z,7.10
2023-03-26T06:51:27.272Z,7.10
2023-03-26T06:54:19.583Z,7.10
2023-03-26T06:56:46.501Z,7.10
2023-03-26T06:59:33.699Z,7.10
2023-03-26T07:02:19.361Z,7.10
2023-03-26T07:05:04.800Z,7.10
2023-03-26T07:07:50.598Z,7.10
2023-03-26T07:10:17.645Z,7.10
2023-03-26T07:13:04.788Z,7.10
2023-03-26T07:15:49.832Z,7.10
2023-03-26T07:18:22.756Z,7.10
2023-03-26T07:20:51.198Z,7.10
2023-03-26T07:23:27.422Z,7.10
2023-03-26T07:26:21.053Z,7.10
2023-03-26T07:29:22.248Z,7.10
2023-03-26T07:32:16.691Z,7.10
2023-03-26T07:35:05.400Z,7.10
2023-03-26T07:38:07.957Z,7.10
2023-03-26T07:40:57.688Z,7.10
2023-03-26T07:43:36.550Z,7.10
2023-03-26T07:46:28.744Z,7.10
2023-03-26T07:49:13.990Z,7.10
2023-03-26T07:52:01.361Z,7.10
2023-03-26T07:55:06.958Z,7.20
2023-03-26T07:57:52.417Z,7.10
2023-03-26T08:00:57.398Z,7.20
2023-03-26T08:03:38.261Z,7.20
2023-03-26T08:06:32.686Z,7.20
2023-03-26T08:09:27.749Z,7.20
2023-03-26T08:12:23.861Z,7.30
2023-03-26T08:14:53.558Z,7.30
2023-03-26T08:17:23.728Z,7.30
2023-03-26T08:19:58.520Z,7.30
2023-03-26T08:22:34.338Z,7.30
2023-03-26T08:25:01.512Z,7.30
2023-03-26T08:27:28.380Z,7.40
2023-03-26T08:29:59.716Z,7.40
2023-03-26T08:32:26.686Z,7.40
2023-03-26T08:34:53.586Z,7.50
2023-03-26T08:37:20.721Z,7.50
2023-03-26T08:39:48.843Z,7.50
2023-03-26T08:42:18.805Z,7.60
2023-03-26T08:44:47.874Z,7.70
2023-03-26T08:47:47.106Z,7.80
2023-03-26T08:50:35.046Z,7.80
2023-03-26T08:53:08.621Z,7.90
2023-03-26T08:55:55.246Z,7.90
2023-03-26T08:58:37.686Z,8.00
2023-03-26T09:01:10.927Z,8.10
2023-03-26T09:03:56.667Z,8.00
2023-03-26T09:06:42.312Z,8.10
2023-03-26T09:09:19.072Z,8.20
2023-03-26T09:12:07.770Z,8.20
2023-03-26T09:14:35.248Z,8.30
2023-03-26T09:17:28.300Z,8.50
2023-03-26T09:20:15.380Z,8.50
2023-03-26T09:22:53.177Z,8.50
2023-03-26T09:25:20.007Z,8.70
2023-03-26T09:28:05.881Z,8.90
2023-03-26T09:30:32.811Z,9.30
2023-03-26T09:33:07.371Z,9.60
2023-03-26T09:35:43.444Z,9.70
2023-03-26T09:38:17.648Z,9.80
2023-03-26T09:40:44.554Z,9.90
2023-03-26T09:43:28.718Z,9.90
2023-03-26T09:46:05.020Z,9.90
2023-03-26T09:48:32.033Z,9.80
2023-03-26T09:51:07.451Z,9.70
2023-03-26T09:53:34.454Z,9.70
2023-03-26T09:56:01.376Z,9.70
2023-03-26T09:58:34.439Z,9.70
2023-03-26T10:01:33.621Z,9.80
2023-03-26T10:04:03.390Z,9.90
2023-03-26T10:06:30.251Z,10.30
2023-03-26T10:09:27.274Z,10.70
2023-03-26T10:11:57.026Z,11.00
2023-03-26T10:14:32.509Z,11.20
2023-03-26T10:17:19.791Z,11.20
2023-03-26T10:20:08.713Z,11.10
2023-03-26T10:22:44.899Z,11.10
2023-03-26T10:25:22.295Z,11.40
2023-03-26T10:27:49.205Z,11.60
2023-03-26T10:30:16.060Z,11.60
2023-03-26T10:32:45.413Z,11.80
2023-03-26T10:35:21.363Z,12.00
2023-03-26T10:37:57.447Z,12.00
2023-03-26T10:40:31.252Z,12.00
2023-03-26T10:43:01.270Z,11.90
2023-03-26T10:45:31.173Z,11.80
2023-03-26T10:48:07.149Z,11.70
2023-03-26T10:50:49.463Z,11.60
2023-03-26T10:53:36.411Z,11.50
2023-03-26T10:56:21.903Z,11.50
2023-03-26T10:58:50.904Z,11.50
2023-03-26T11:01:17.774Z,11.40
2023-03-26T11:04:05.569Z,11.30
2023-03-26T11:06:54.692Z,11.10
2023-03-26T11:09:27.333Z,11.00
2023-03-26T11:12:00.035Z,10.80
2023-03-26T11:14:50.433Z,10.80
2023-03-26T11:17:39.760Z,10.60
2023-03-26T11:20:16.523Z,10.50
2023-03-26T11:23:02.340Z,10.60
2023-03-26T11:25:29.286Z,10.70
2023-03-26T11:28:05.861Z,10.90
2023-03-26T11:30:47.402Z,11.00
2023-03-26T11:33:35.261Z,10.90
2023-03-26T11:36:05.673Z,10.80
2023-03-26T11:38:37.579Z,10.70
2023-03-26T11:41:11.990Z,10.70
2023-03-26T11:43:56.693Z,10.70
2023-03-26T11:46:26.690Z,10.50
2023-03-26T11:48:58.245Z,10.50
2023-03-26T11:51:28.290Z,10.40
2023-03-26T11:53:57.774Z,10.40
2023-03-26T11:56:34.102Z,10.40
2023-03-26T11:59:25.008Z,10.50
2023-03-26T12:01:56.175Z,10.50
2023-03-26T12:04:30.015Z,10.60
2023-03-26T12:07:05.053Z,10.60
2023-03-26T12:09:31.936Z,10.70
2023-03-26T12:12:00.601Z,10.60
2023-03-26T12:14:29.337Z,10.60
2023-03-26T12:16:57.939Z,10.60
2023-03-26T12:19:25.263Z,10.60
2023-03-26T12:21:53.119Z,10.60
2023-03-26T12:24:26.024Z,10.70
2023-03-26T12:26:56.700Z,10.70
2023-03-26T12:29:24.205Z,10.90
2023-03-26T12:31:56.897Z,11.20
2023-03-26T12:34:30.781Z,11.50
2023-03-26T12:37:00.898Z,11.90
2023-03-26T12:40:10.486Z,12.10
2023-03-26T12:44:51.502Z,12.20
2023-03-26T12:45:28.055Z,12.30
2023-03-26T12:48:03.765Z,12.30
2023-03-26T12:50:45.115Z,12.20
2023-03-26T12:53:15.054Z,12.10
2023-03-26T12:55:48.076Z,11.90
2023-03-26T12:58:21.140Z,11.80
2023-03-26T13:01:06.876Z,11.60
2023-03-26T13:03:34.452Z,11.40
2023-03-26T13:06:19.887Z,11.20
2023-03-26T13:08:54.991Z,11.10
2023-03-26T13:11:40.403Z,10.90
2023-03-26T13:14:25.839Z,10.80
2023-03-26T13:17:02.319Z,10.60
2023-03-26T13:19:29.177Z,10.50
2023-03-26T13:22:14.667Z,10.40
2023-03-26T13:24:48.188Z,10.40
2023-03-26T13:27:15.040Z,10.20
2023-03-26T13:29:50.057Z,10.20
2023-03-26T13:32:23.363Z,10.10
2023-03-26T13:35:04.299Z,10.10
2023-03-26T13:37:31.221Z,10.00
2023-03-26T13:40:10.424Z,9.90
2023-03-26T13:42:43.394Z,9.90
2023-03-26T13:45:10.374Z,9.80
2023-03-26T13:47:41.121Z,9.80
2023-03-26T13:50:14.950Z,9.90
2023-03-26T13:52:57.690Z,9.90
2023-03-26T13:55:34.153Z,9.90
2023-03-26T13:58:16.538Z,9.90
2023-03-26T14:00:55.814Z,10.00
2023-03-26T14:03:29.669Z,10.00
2023-03-26T14:05:59.884Z,10.10
2023-03-26T14:08:36.849Z,10.00
2023-03-26T14:11:11.008Z,10.00
2023-03-26T14:13:51.560Z,10.00
2023-03-26T14:16:29.568Z,9.90
2023-03-26T14:18:56.645Z,9.90
2023-03-26T14:21:34.282Z,9.80
2023-03-26T14:24:10.375Z,9.80
2023-03-26T14:26:37.511Z,9.70
2023-03-26T14:29:23.757Z,9.70
2023-03-26T14:31:58.426Z,9.60
2023-03-26T14:34:34.630Z,9.40
2023-03-26T14:37:10.651Z,9.30
2023-03-26T14:39:51.985Z,9.30
2023-03-26T14:42:19.253Z,9.20
2023-03-26T14:44:54.925Z,9.20
2023-03-26T14:47:22.548Z,9.10
2023-03-26T14:50:04.722Z,9.10
2023-03-26T14:52:50.952Z,9.10
2023-03-26T14:55:20.907Z,9.00
2023-03-26T14:57:56.925Z,9.00
2023-03-26T15:00:33.089Z,9.00
2023-03-26T15:03:09.644Z,9.00
2023-03-26T15:05:36.602Z,9.00
2023-03-26T15:08:12.459Z,9.00
2023-03-26T15:10:54.775Z,9.00
2023-03-26T15:13:22.072Z,9.00
2023-03-26T15:16:08.177Z,9.00
2023-03-26T15:18:54.329Z,9.00
2023-03-26T15:21:40.552Z,9.00
2023-03-26T15:24:32.891Z,9.00
2023-03-26T15:27:18.679Z,8.90
2023-03-26T15:29:45.988Z,9.00
2023-03-26T15:32:31.899Z,8.90
2023-03-26T15:35:17.409Z,9.00
2023-03-26T15:37:47.433Z,9.00
2023-03-26T15:40:27.832Z,8.90
2023-03-26T15:43:06.909Z,9.00
2023-03-26T15:45:33.846Z,8.90
2023-03-26T15:48:01.360Z,8.90
2023-03-26T15:50:52.078Z,8.90
2023-03-26T15:53:23.732Z,8.90
2023-03-26T15:56:05.703Z,8.90
2023-03-26T15:58:50.963Z,8.90
2023-03-26T16:01:26.593Z,8.90
2023-03-26T16:03:57.570Z,8.80
2023-03-26T16:06:46.602Z,8.70
2023-03-26T16:09:34.136Z,8.60
2023-03-26T16:12:23.700Z,8.60
2023-03-26T16:15:14.061Z,8.50
2023-03-26T16:17:59.719Z,8.50
2023-03-26T16:20:33.203Z,8.50
2023-03-26T16:23:03.208Z,8.50
2023-03-26T16:25:31.820Z,8.50
2023-03-26T16:28:17.121Z,8.50
2023-03-26T16:30:46.088Z,8.50
2023-03-26T16:33:15.837Z,8.50
2023-03-26T16:35:42.950Z,8.50
2023-03-26T16:38:12.131Z,8.50
2023-03-26T16:40:55.784Z,8.50
2023-03-26T16:43:39.244Z,8.50
2023-03-26T16:46:15.361Z,8.50
2023-03-26T16:48:48.112Z,8.50
2023-03-26T16:51:22.938Z,8.40
2023-03-26T16:54:02.293Z,8.30
2023-03-26T16:56:38.148Z,8.30
2023-03-26T16:59:09.743Z,8.20
2023-03-26T17:01:41.597Z,8.20
2023-03-26T17:04:17.337Z,8.20
2023-03-26T17:06:47.257Z,8.20
2023-03-26T17:09:17.632Z,8.20
2023-03-26T17:11:47.480Z,8.10
2023-03-26T17:14:14.280Z,8.10
2023-03-26T17:16:41.401Z,8.10
2023-03-26T17:19:32.272Z,8.10
2023-03-26T17:22:05.863Z,8.00
2023-03-26T17:24:32.725Z,8.00
2023-03-26T17:27:28.271Z,7.90
2023-03-26T17:30:24.957Z,8.00
2023-03-26T17:32:58.893Z,7.90
2023-03-26T17:35:39.937Z,7.80
2023-03-26T17:38:29.811Z,7.80
2023-03-26T17:40:58.749Z,7.80
2023-03-26T17:43:37.346Z,7.70
2023-03-26T17:46:06.246Z,7.70
2023-03-26T17:48:36.566Z,7.70
2023-03-26T17:51:06.585Z,7.70
2023-03-26T17:53:35.570Z,7.70
2023-03-26T17:56:05.051Z,7.70
2023-03-26T17:58:49.327Z,7.70
2023-03-26T18:01:37.182Z,7.70
2023-03-26T18:04:07.023Z,7.60
2023-03-26T18:06:33.855Z,7.60
2023-03-26T18:09:21.019Z,7.60
2023-03-26T18:11:56.993Z,7.60
2023-03-26T18:14:24.050Z,7.60
2023-03-26T18:16:56.037Z,7.60
2023-03-26T18:19:23.400Z,7.60
2023-03-26T18:21:52.034Z,7.60
2023-03-26T18:24:38.302Z,7.60
2023-03-26T18:27:07.073Z,7.70
2023-03-26T18:29:35.747Z,7.70
2023-03-26T18:32:16.866Z,7.70
2023-03-26T18:34:50.084Z,7.70
2023-03-26T18:37:22.620Z,7.70
2023-03-26T18:40:15.534Z,7.70
2023-03-26T18:42:47.248Z,7.60
2023-03-26T18:45:34.433Z,7.60
2023-03-26T18:48:04.086Z,7.60
2023-03-26T18:50:38.767Z,7.60
2023-03-26T18:53:06.998Z,7.60
2023-03-26T18:55:39.252Z,7.60
2023-03-26T18:58:21.599Z,7.60
2023-03-26T19:00:49.930Z,7.60
2023-03-26T19:03:18.674Z,7.50
2023-03-26T19:05:45.770Z,7.50
2023-03-26T19:08:12.916Z,7.50
2023-03-26T19:10:39.891Z,7.50
2023-03-26T19:13:12.664Z,7.50
2023-03-26T19:15:39.852Z,7.50
2023-03-26T19:18:09.963Z,7.50
2023-03-26T19:20:39.654Z,7.50
2023-03-26T19:23:09.141Z,7.50
2023-03-26T19:25:42.066Z,7.40
2023-03-26T19:28:16.093Z,7.40
2023-03-26T19:30:43.883Z,7.40
2023-03-26T19:33:18.529Z,7.40
2023-03-26T19:35:47.595Z,7.40
2023-03-26T19:38:27.838Z,7.30
2023-03-26T19:40:56.054Z,7.40
2023-03-26T19:43:26.811Z,7.40
2023-03-26T19:45:59.327Z,7.30
2023-03-26T19:48:45.881Z,7.30
2023-03-26T19:51:22.128Z,7.30
2023-03-26T19:53:53.261Z,7.20
2023-03-26T19:56:22.039Z,7.10
2023-03-26T19:58:50.273Z,7.10
2023-03-26T20:01:21.024Z,7.10
2023-03-26T20:03:49.395Z,7.10
2023-03-26T20:06:17.437Z,7.10
2023-03-26T20:08:44.714Z,7.00
2023-03-26T20:11:16.608Z,7.00
2023-03-26T20:13:43.523Z,6.90
2023-03-26T20:16:21.184Z,6.90
2023-03-26T20:18:50.697Z,6.80
2023-03-26T20:21:17.848Z,6.80
2023-03-26T20:23:44.784Z,6.80
2023-03-26T20:26:13.144Z,6.80
2023-03-26T20:28:47.695Z,6.80
2023-03-26T20:31:17.139Z,6.70
2023-03-26T20:33:44.052Z,6.70
2023-03-26T20:36:14.212Z,6.70
2023-03-26T20:39:01.253Z,6.70
2023-03-26T20:41:29.105Z,6.70
2023-03-26T20:43:56.074Z,6.70
2023-03-26T20:46:23.999Z,6.70
2023-03-26T20:48:58.895Z,6.70
2023-03-26T20:51:28.490Z,6.70
2023-03-26T20:53:56.060Z,6.60
2023-03-26T20:56:23.479Z,6.60
2023-03-26T20:59:03.643Z,6.60
2023-03-26T21:01:37.883Z,6.50
2023-03-26T21:04:04.781Z,6.50
2023-03-26T21:06:31.710Z,6.50
2023-03-26T21:08:58.780Z,6.50
2023-03-26T21:11:28.821Z,6.50
2023-03-26T21:14:02.005Z,6.50
2023-03-26T21:16:29.211Z,6.50
2023-03-26T21:18:56.634Z,6.50
2023-03-26T21:21:33.495Z,6.50
2023-03-26T21:24:20.597Z,6.50
2023-03-26T21:26:58.376Z,6.50
2023-03-26T21:29:25.386Z,6.50
2023-03-26T21:31:54.117Z,6.50
2023-03-26T21:34:22.325Z,6.50
2023-03-26T21:36:49.332Z,6.50
2023-03-26T21:39:16.558Z,6.50
2023-03-26T21:41:45.805Z,6.50
2023-03-26T21:44:14.334Z,6.40
2023-03-26T21:46:42.498Z,6.40
2023-03-26T21:49:09.711Z,6.40
2023-03-26T21:51:36.689Z,6.40
2023-03-26T21:54:04.170Z,6.40
2023-03-26T21:57:06.750Z,6.40
2023-03-26T21:59:39.200Z,6.50
2023-03-26T22:02:10.813Z,6.40
2023-03-26T22:04:43.915Z,6.40
2023-03-26T22:07:16.521Z,6.40
2023-03-26T22:09:44.980Z,6.40
2023-03-26T22:12:11.905Z,6.40
2023-03-26T22:14:39.501Z,6.40
2023-03-26T22:17:06.670Z,6.40
2023-03-26T22:19:34.679Z,6.40
2023-03-26T22:22:03.067Z,6.40
2023-03-26T22:24:30.065Z,6.40
2023-03-26T22:26:57.168Z,6.40
2023-03-26T22:29:24.089Z,6.30
2023-03-26T22:31:51.278Z,6.30
2023-03-26T22:34:18.160Z,6.30
2023-03-26T22:36:45.269Z,6.30
2023-03-26T22:39:12.364Z,6.30
2023-03-26T22:41:39.297Z,6.30
2023-03-26T22:44:19.011Z,6.30
2023-03-26T22:46:49.591Z,6.30
2023-03-26T22:49:17.805Z,6.30
2023-03-26T22:51:44.718Z,6.30
2023-03-26T22:54:11.591Z,6.30
2023-03-26T22:56:38.529Z,6.30
2023-03-26T22:59:05.443Z,6.30
2023-03-26T23:01:32.462Z,6.20
2023-03-26T23:03:59.358Z,6.20
2023-03-26T23:06:27.161Z,6.20
2023-03-26T23:08:55.990Z,6.10
2023-03-26T23:11:23.279Z,6.10
2023-03-26T23:13:50.516Z,6.00
2023-03-26T23:16:17.979Z,6.00
2023-03-26T23:18:44.950Z,6.00
2023-03-26T23:21:19.382Z,6.00
2023-03-26T23:23:47.067Z,6.00
2023-03-26T23:26:14.880Z,5.90
2023-03-26T23:28:41.947Z,5.90
2023-03-26T23:31:09.676Z,5.90
2023-03-26T23:33:38.106Z,5.90
2023-03-26T23:36:07.519Z,5.80
2023-03-26T23:38:43.422Z,5.80
2023-03-26T23:41:15.161Z,5.80
2023-03-26T23:43:53.444Z,5.80
2023-03-26T23:46:23.624Z,5.70
2023-03-26T23:48:55.070Z,5.70
2023-03-26T23:51:22.334Z,5.70
2023-03-26T23:53:49.490Z,5.70
2023-03-26T23:56:16.735Z,5.70
2023-03-26T23:58:43.738Z,5.70
